createdAt,value
2022-10-22T00:01:13.063Z,100020.00
2022-10-22T00:03:41.078Z,100026.94
2022-10-22T00:06:09.256Z,100028.69
2022-10-22T00:08:38.688Z,100026.09
2022-10-22T00:11:12.246Z,100034.78
2022-10-22T00:13:40.470Z,100028.72
2022-10-22T00:16:09.206Z,100023.50
2022-10-22T00:18:37.626Z,100025.22
2022-10-22T00:21:06.924Z,100024.34
2022-10-22T00:23:35.345Z,100025.22
2022-10-22T00:26:07.336Z,100030.44
2022-10-22T00:28:35.194Z,100027.81
2022-10-22T00:31:04.067Z,100027.81
2022-10-22T00:33:32.095Z,100030.44
2022-10-22T00:36:01.211Z,100026.06
2022-10-22T00:38:31.480Z,100026.06
2022-10-22T00:40:59.334Z,100026.94
2022-10-22T00:43:28.396Z,100029.53
2022-10-22T00:45:56.374Z,100037.34
2022-10-22T00:48:29.642Z,100036.47
2022-10-22T00:51:02.902Z,100030.38
2022-10-22T00:53:37.288Z,100038.22
2022-10-22T00:56:06.554Z,100039.09
2022-10-22T00:58:43.594Z,100033.03
2022-10-22T01:01:21.421Z,100042.59
2022-10-22T01:03:50.489Z,100026.94
2022-10-22T01:06:26.098Z,100030.44
2022-10-22T01:09:09.705Z,100037.38
2022-10-22T01:11:56.760Z,100040.88
2022-10-22T01:14:41.466Z,100034.78
2022-10-22T01:20:10.193Z,100040.84
2022-10-22T01:22:45.849Z,100033.88
2022-10-22T01:25:30.980Z,100038.22
2022-10-22T01:28:17.626Z,100033.91
2022-10-22T01:30:53.150Z,100033.94
2022-10-22T01:33:23.876Z,100032.16
2022-10-22T01:35:53.709Z,100020.84
2022-10-22T01:38:25.135Z,100025.22
2022-10-22T01:40:55.830Z,100030.44
2022-10-22T01:43:23.820Z,100028.72
2022-10-22T01:46:00.193Z,100031.28
2022-10-22T01:48:47.884Z,100035.63
2022-10-22T01:51:40.829Z,100025.22
2022-10-22T01:54:25.377Z,100025.22
2022-10-22T01:57:08.762Z,100025.19
2022-10-22T01:59:51.456Z,100028.66
2022-10-22T02:02:36.733Z,100021.72
2022-10-22T02:05:13.681Z,100009.53
2022-10-22T02:07:48.368Z,100016.47
2022-10-22T02:10:19.146Z,100021.72
2022-10-22T02:12:53.364Z,100015.66
2022-10-22T02:15:25.608Z,100009.53
2022-10-22T02:18:00.681Z,100011.25
2022-10-22T02:20:33.118Z,100015.63
2022-10-22T02:23:03.702Z,100015.63
2022-10-22T02:25:37.360Z,100018.22
2022-10-22T02:28:14.440Z,100011.25
2022-10-22T02:30:51.836Z,100015.59
2022-10-22T02:33:27.250Z,100006.88
2022-10-22T02:35:57.508Z,100005.16
2022-10-22T02:38:28.334Z,100004.28
2022-10-22T02:40:56.480Z,100014.72
2022-10-22T02:43:25.449Z,100020.78
2022-10-22T02:45:53.396Z,100019.91
2022-10-22T02:48:22.600Z,100016.41
2022-10-22T02:50:50.360Z,100021.63
2022-10-22T02:53:18.144Z,100024.25
2022-10-22T02:55:46.303Z,100026.84
2022-10-22T02:58:14.172Z,100024.25
2022-10-22T03:00:42.209Z,100032.94
2022-10-22T03:03:10.001Z,100028.59
2022-10-22T03:05:39.103Z,100032.06
2022-10-22T03:08:06.871Z,100021.59
2022-10-22T03:10:34.921Z,100030.28
2022-10-22T03:13:03.413Z,100020.75
2022-10-22T03:15:31.451Z,100030.28
2022-10-22T03:17:59.182Z,100032.94
2022-10-22T03:20:27.565Z,100035.56
2022-10-22T03:22:58.029Z,100026.84
2022-10-22T03:25:28.421Z,100036.38
2022-10-22T03:28:04.490Z,100037.22
2022-10-22T03:30:32.504Z,100033.72
2022-10-22T03:33:00.294Z,100033.72
2022-10-22T03:35:28.275Z,100031.13
2022-10-22T03:38:01.105Z,100032.81
2022-10-22T03:40:29.326Z,100038.84
2022-10-22T03:42:58.576Z,100042.31
2022-10-22T03:45:26.517Z,100035.38
2022-10-22T03:47:54.391Z,100034.50
2022-10-22T03:50:22.151Z,100038.00
2022-10-22T03:52:49.880Z,100033.63
2022-10-22T03:55:19.280Z,100039.69
2022-10-22T03:57:47.015Z,100042.31
2022-10-22T04:00:15.399Z,100038.81
2022-10-22T04:02:43.180Z,100044.91
2022-10-22T04:05:12.062Z,100040.53
2022-10-22T04:07:40.078Z,100044.00
2022-10-22T04:10:09.117Z,100041.38
2022-10-22T04:12:38.238Z,100037.03
2022-10-22T04:15:07.676Z,100043.09
2022-10-22T04:17:36.654Z,100050.94
2022-10-22T04:20:06.126Z,100044.00
2022-10-22T04:22:34.753Z,100050.06
2022-10-22T04:25:04.340Z,100063.06
2022-10-22T04:27:33.272Z,100055.25
2022-10-22T04:30:02.902Z,100055.25
2022-10-22T04:32:30.867Z,100069.13
2022-10-22T04:34:58.580Z,100057.84
2022-10-22T04:37:26.370Z,100060.47
2022-10-22T04:39:54.095Z,100066.53
2022-10-22T04:42:21.817Z,100059.56
2022-10-22T04:44:49.742Z,100060.41
2022-10-22T04:47:19.061Z,100062.16
2022-10-22T04:49:46.791Z,100059.53
2022-10-22T04:52:14.572Z,100061.31
2022-10-22T04:54:42.280Z,100073.34
2022-10-22T04:57:10.004Z,100073.28
2022-10-22T04:59:37.932Z,100068.09
2022-10-22T05:02:05.777Z,100066.38
2022-10-22T05:04:34.904Z,100066.38
2022-10-22T05:07:02.749Z,100073.22
2022-10-22T05:09:30.549Z,100069.81
2022-10-22T05:11:58.286Z,100070.66
2022-10-22T05:14:26.245Z,100064.59
2022-10-22T05:16:54.950Z,100070.72
2022-10-22T05:19:26.291Z,100075.94
2022-10-22T05:21:58.532Z,100075.06
2022-10-22T05:24:29.173Z,100070.72
2022-10-22T05:26:59.584Z,100075.06
2022-10-22T05:29:28.238Z,100074.19
2022-10-22T05:31:56.861Z,100078.50
2022-10-22T05:34:24.591Z,100076.78
2022-10-22T05:36:52.294Z,100079.38
2022-10-22T05:39:21.401Z,100082.88
2022-10-22T05:41:49.149Z,100089.78
2022-10-22T05:44:16.868Z,100088.09
2022-10-22T05:46:44.802Z,100090.72
2022-10-22T05:49:15.580Z,100087.22
2022-10-22T05:51:43.500Z,100077.69
2022-10-22T05:54:18.110Z,100078.59
2022-10-22T05:56:47.351Z,100082.03
2022-10-22T05:59:15.164Z,100088.97
2022-10-22T06:01:43.060Z,100098.44
2022-10-22T06:04:13.333Z,100104.53
2022-10-22T06:06:44.935Z,100102.81
2022-10-22T06:09:18.376Z,100105.41
2022-10-22T06:11:48.943Z,100111.41
2022-10-22T06:14:18.773Z,100113.13
2022-10-22T06:16:47.500Z,100114.88
2022-10-22T06:19:18.154Z,100116.59
2022-10-22T06:21:47.090Z,100125.31
2022-10-22T06:24:15.664Z,100125.34
2022-10-22T06:26:43.777Z,100128.84
2022-10-22T06:29:12.905Z,100135.81
2022-10-22T06:31:41.732Z,100142.81
2022-10-22T06:34:13.958Z,100137.56
2022-10-22T06:36:43.946Z,100141.13
2022-10-22T06:39:13.675Z,100141.16
2022-10-22T06:41:41.745Z,100153.38
2022-10-22T06:44:15.060Z,100154.22
2022-10-22T06:46:43.609Z,100156.91
2022-10-22T06:49:14.632Z,100163.91
2022-10-22T06:51:42.516Z,100159.59
2022-10-22T06:54:11.077Z,100168.31
2022-10-22T06:56:38.876Z,100175.28
2022-10-22T06:59:06.697Z,100165.78
2022-10-22T07:01:36.508Z,100171.09
2022-10-22T07:04:05.892Z,100174.63
2022-10-22T07:06:34.092Z,100180.72
2022-10-22T07:09:02.471Z,100181.66
2022-10-22T07:11:38.893Z,100190.38
2022-10-22T07:14:06.680Z,100192.19
2022-10-22T07:16:36.352Z,100194.81
2022-10-22T07:19:05.242Z,100198.31
2022-10-22T07:21:33.108Z,100200.06
2022-10-22T07:24:01.129Z,100202.75
2022-10-22T07:26:31.032Z,100201.03
2022-10-22T07:28:59.899Z,100202.75
2022-10-22T07:31:28.317Z,100205.41
2022-10-22T07:33:58.136Z,100215.84
2022-10-22T07:36:26.004Z,100211.53
2022-10-22T07:38:57.207Z,100215.88
2022-10-22T07:41:26.440Z,100224.56
2022-10-22T07:43:55.834Z,100227.22
2022-10-22T07:46:24.702Z,100230.72
2022-10-22T07:48:52.567Z,100230.69
2022-10-22T07:51:21.820Z,100234.19
2022-10-22T07:53:49.592Z,100231.56
2022-10-22T07:56:17.636Z,100239.41
2022-10-22T07:58:45.411Z,100248.09
2022-10-22T08:01:13.227Z,100237.66
2022-10-22T08:03:41.009Z,100238.53
2022-10-22T08:06:12.632Z,100244.63
2022-10-22T08:08:43.327Z,100248.09
2022-10-22T08:11:12.740Z,100241.16
2022-10-22T08:13:45.373Z,100242.88
2022-10-22T08:16:14.733Z,100242.03
2022-10-22T08:18:43.241Z,100245.50
2022-10-22T08:21:11.372Z,100242.88
2022-10-22T08:23:40.645Z,100247.22
2022-10-22T08:26:09.094Z,100249.78
2022-10-22T08:28:37.739Z,100242.78
2022-10-22T08:31:07.286Z,100234.00
2022-10-22T08:33:35.208Z,100245.34
2022-10-22T08:36:03.382Z,100251.44
2022-10-22T08:38:32.542Z,100248.75
2022-10-22T08:41:11.498Z,100254.84
2022-10-22T08:44:24.257Z,100258.38
2022-10-22T08:47:21.397Z,100257.47
2022-10-22T08:49:52.743Z,100259.19
2022-10-22T08:52:21.720Z,100257.44
2022-10-22T08:54:54.566Z,100262.63
2022-10-22T08:57:53.897Z,100265.06
2022-10-22T09:00:30.977Z,100260.56
2022-10-22T09:03:26.974Z,100263.91
2022-10-22T09:06:05.277Z,100261.13
2022-10-22T09:08:35.245Z,100261.00
2022-10-22T09:11:15.766Z,100265.25
2022-10-22T09:13:46.813Z,100267.88
2022-10-22T09:16:18.915Z,100269.44
2022-10-22T09:19:05.804Z,100272.94
2022-10-22T09:21:51.766Z,100272.94
2022-10-22T09:24:33.499Z,100272.94
2022-10-22T09:27:05.332Z,100281.59
2022-10-22T09:29:34.787Z,100285.16
2022-10-22T09:32:03.523Z,100278.19
2022-10-22T09:34:32.427Z,100286.06
2022-10-22T09:37:03.516Z,100294.19
2022-10-22T09:39:37.039Z,100297.66
2022-10-22T09:42:05.771Z,100295.03
2022-10-22T09:44:38.281Z,100300.22
2022-10-22T09:47:07.060Z,100306.25
2022-10-22T09:49:36.652Z,100290.47
2022-10-22T09:52:28.783Z,100300.94
2022-10-22T09:54:57.302Z,100308.84
2022-10-22T09:57:27.458Z,100304.34
2022-10-22T09:59:57.638Z,100306.94
2022-10-22T10:02:44.441Z,100309.69
2022-10-22T10:05:27.951Z,100323.72
2022-10-22T10:07:58.053Z,100325.41
2022-10-22T10:10:36.961Z,100323.72
2022-10-22T10:13:30.294Z,100327.22
2022-10-22T10:16:11.897Z,100329.06
2022-10-22T10:19:02.783Z,100330.91
2022-10-22T10:21:46.052Z,100337.88
2022-10-22T10:24:28.871Z,100339.50
2022-10-22T10:27:05.091Z,100341.97
2022-10-22T10:29:49.495Z,100335.81
2022-10-22T10:32:40.980Z,100338.47
2022-10-22T10:35:23.802Z,100354.19
2022-10-22T10:38:09.199Z,100349.81
2022-10-22T10:40:48.679Z,100358.56
2022-10-22T10:43:29.857Z,100356.78
2022-10-22T10:46:12.190Z,100356.06
2022-10-22T10:48:54.200Z,100361.28
2022-10-22T10:51:41.439Z,100362.06
2022-10-22T10:54:27.670Z,100345.38
2022-10-22T10:57:00.532Z,100353.25
2022-10-22T10:59:49.470Z,100350.59
2022-10-22T11:02:52.169Z,100346.13
2022-10-22T11:05:32.180Z,100342.59
2022-10-22T11:08:09.600Z,100333.59
2022-10-22T11:10:44.821Z,100354.59
2022-10-22T11:13:22.383Z,100356.34
2022-10-22T11:16:00.114Z,100351.94
2022-10-22T11:18:37.915Z,100363.25
2022-10-22T11:21:26.995Z,100359.97
2022-10-22T11:24:04.965Z,100367.88
2022-10-22T11:26:44.334Z,100371.44
2022-10-22T11:29:21.218Z,100364.69
2022-10-22T11:31:51.203Z,100368.28
2022-10-22T11:34:39.894Z,100370.88
2022-10-22T11:37:12.763Z,100369.94
2022-10-22T11:39:47.738Z,100374.34
2022-10-22T11:42:21.471Z,100377.91
2022-10-22T11:45:00.927Z,100377.91
2022-10-22T11:47:33.178Z,100384.13
2022-10-22T11:50:20.293Z,100383.31
2022-10-22T11:53:02.540Z,100383.38
2022-10-22T11:55:51.693Z,100383.41
2022-10-22T11:58:42.424Z,100386.94
2022-10-22T12:01:27.153Z,100385.19
2022-10-22T12:04:20.384Z,100386.06
2022-10-22T12:06:58.109Z,100395.75
2022-10-22T12:09:32.437Z,100394.09
2022-10-22T12:12:14.613Z,100403.69
2022-10-22T12:14:55.002Z,100400.22
2022-10-22T12:17:25.024Z,100396.72
2022-10-22T12:20:02.758Z,100401.13
2022-10-22T12:22:37.286Z,100401.13
2022-10-22T12:25:19.970Z,100416.97
2022-10-22T12:27:53.340Z,100413.50
2022-10-22T12:30:25.222Z,100417.94
2022-10-22T12:32:56.325Z,100419.69
2022-10-22T12:35:26.282Z,100420.56
2022-10-22T12:37:57.159Z,100417.09
2022-10-22T12:40:29.416Z,100415.31
2022-10-22T12:43:00.465Z,100418.81
2022-10-22T12:45:32.838Z,100406.34
2022-10-22T12:48:05.452Z,100395.69
2022-10-22T12:50:40.309Z,100395.34
2022-10-22T12:53:16.990Z,100392.69
2022-10-22T12:55:50.843Z,100388.06
2022-10-22T12:58:22.630Z,100387.25
2022-10-22T13:00:57.347Z,100385.53
2022-10-22T13:03:32.210Z,100383.69
2022-10-22T13:06:14.201Z,100380.47
2022-10-22T13:08:43.409Z,100376.91
2022-10-22T13:11:13.582Z,100381.66
2022-10-22T13:13:45.481Z,100379.41
2022-10-22T13:16:17.136Z,100376.72
2022-10-22T13:18:46.377Z,100385.38
2022-10-22T13:21:33.349Z,100383.69
2022-10-22T13:24:18.705Z,100393.91
2022-10-22T13:26:54.146Z,100395.69
2022-10-22T13:29:24.109Z,100375.94
2022-10-22T13:31:53.897Z,100378.97
2022-10-22T13:34:25.808Z,100376.72
2022-10-22T13:36:53.690Z,100379.16
2022-10-22T13:39:24.618Z,100379.38
2022-10-22T13:41:53.780Z,100382.41
2022-10-22T13:44:21.669Z,100393.47
2022-10-22T13:46:49.635Z,100392.38
2022-10-22T13:49:23.273Z,100392.72
2022-10-22T13:51:51.586Z,100397.28
2022-10-22T13:54:23.716Z,100394.38
2022-10-22T13:56:53.772Z,100399.28
2022-10-22T13:59:23.863Z,100391.34
2022-10-22T14:01:54.684Z,100402.31
2022-10-22T14:04:22.696Z,100401.75
2022-10-22T14:06:50.459Z,100403.06
2022-10-22T14:09:18.812Z,100410.44
2022-10-22T14:11:46.582Z,100412.56
2022-10-22T14:14:17.174Z,100419.63
2022-10-22T14:16:45.460Z,100424.13
2022-10-22T14:19:17.477Z,100421.44
2022-10-22T14:21:45.752Z,100423.31
2022-10-22T14:24:13.689Z,100427.47
2022-10-22T14:26:41.776Z,100417.03
2022-10-22T14:29:10.699Z,100419.19
2022-10-22T14:31:43.821Z,100414.66
2022-10-22T14:34:15.931Z,100418.19
2022-10-22T14:36:44.314Z,100426.28
2022-10-22T14:39:13.899Z,100430.84
2022-10-22T14:41:42.750Z,100426.63
2022-10-22T14:44:13.811Z,100427.59
2022-10-22T14:46:44.008Z,100425.06
2022-10-22T14:49:13.220Z,100429.66
2022-10-22T14:51:42.172Z,100430.69
2022-10-22T14:54:09.918Z,100428.16
2022-10-22T14:59:10.627Z,100437.91
2022-10-22T15:01:39.290Z,100428.34
2022-10-22T15:04:08.647Z,100426.59
2022-10-22T15:06:36.640Z,100429.16
2022-10-22T15:09:05.252Z,100422.00
2022-10-22T15:11:33.116Z,100426.38
2022-10-22T15:14:00.914Z,100426.38
2022-10-22T15:16:28.821Z,100430.84
2022-10-22T15:18:57.128Z,100422.97
2022-10-22T15:21:26.352Z,100428.19
2022-10-22T15:23:54.276Z,100427.38
2022-10-22T15:26:22.044Z,100424.00
2022-10-22T15:28:50.274Z,100437.19
2022-10-22T15:31:47.526Z,100436.41
2022-10-22T15:34:20.304Z,100440.91
2022-10-22T15:36:49.820Z,100450.59
2022-10-22T15:39:18.019Z,100434.88
2022-10-22T15:41:47.191Z,100448.09
2022-10-22T15:44:17.677Z,100449.91
2022-10-22T15:46:45.516Z,100460.44
2022-10-22T15:49:14.373Z,100463.13
2022-10-22T15:51:43.990Z,100463.13
2022-10-22T15:54:17.167Z,100458.84
2022-10-22T15:56:46.023Z,100467.72
2022-10-22T15:59:16.812Z,100477.31
2022-10-22T16:01:44.910Z,100476.47
2022-10-22T16:04:13.037Z,100478.25
2022-10-22T16:06:44.549Z,100475.66
2022-10-22T16:09:18.575Z,100481.78
2022-10-22T16:11:47.088Z,100481.75
2022-10-22T16:14:17.421Z,100481.72
2022-10-22T16:16:51.826Z,100492.22
2022-10-22T16:19:22.368Z,100499.19
2022-10-22T16:21:52.500Z,100491.34
2022-10-22T16:24:23.145Z,100494.84
2022-10-22T16:26:53.047Z,100495.69
2022-10-22T16:29:20.878Z,100494.81
2022-10-22T16:31:48.673Z,100497.41
2022-10-22T16:34:16.497Z,100502.63
2022-10-22T16:36:44.514Z,100500.84
2022-10-22T16:39:12.455Z,100505.19
2022-10-22T16:41:41.580Z,100509.53
2022-10-22T16:44:10.264Z,100509.50
2022-10-22T16:46:39.847Z,100511.22
2022-10-22T16:49:07.997Z,100512.91
2022-10-22T16:51:37.929Z,100517.19
2022-10-22T16:54:08.401Z,100518.03
2022-10-22T16:56:41.793Z,100516.25
2022-10-22T16:59:09.621Z,100521.50
2022-10-22T17:01:41.278Z,100518.88
2022-10-22T17:04:12.686Z,100516.19
2022-10-22T17:06:40.411Z,100516.13
2022-10-22T17:09:08.227Z,100522.22
2022-10-22T17:11:39.128Z,100521.34
2022-10-22T17:14:10.867Z,100524.72
2022-10-22T17:16:38.941Z,100530.75
2022-10-22T17:19:06.965Z,100531.59
2022-10-22T17:21:35.824Z,100543.72
2022-10-22T17:24:04.205Z,100533.13
2022-10-22T17:26:34.647Z,100541.72
2022-10-22T17:29:03.406Z,100541.63
2022-10-22T17:31:37.223Z,100531.16
2022-10-22T17:34:07.569Z,100537.25
2022-10-22T17:36:39.910Z,100547.66
2022-10-22T17:39:08.671Z,100547.66
2022-10-22T17:41:39.160Z,100552.00
2022-10-22T17:44:09.506Z,100548.47
2022-10-22T17:49:38.328Z,100550.97
2022-10-22T17:52:06.561Z,100555.25
2022-10-22T17:54:35.004Z,100550.75
2022-10-22T17:57:03.036Z,100565.41
2022-10-22T17:59:31.499Z,100567.06
2022-10-22T18:02:03.646Z,100567.06
2022-10-22T18:04:33.025Z,100570.53
2022-10-22T18:07:00.965Z,100569.72
2022-10-22T18:09:29.406Z,100572.31
2022-10-22T18:11:57.281Z,100570.56
2022-10-22T18:14:25.424Z,100575.75
2022-10-22T18:16:54.684Z,100577.38
2022-10-22T18:19:24.600Z,100577.38
2022-10-22T18:21:52.496Z,100582.56
2022-10-22T18:24:21.995Z,100583.47
2022-10-22T18:26:49.872Z,100582.53
2022-10-22T18:29:19.718Z,100589.38
2022-10-22T18:31:48.656Z,100585.88
2022-10-22T18:34:20.204Z,100583.25
2022-10-22T18:36:52.245Z,100580.66
2022-10-22T18:39:20.116Z,100583.28
2022-10-22T18:41:48.031Z,100580.56
2022-10-22T18:44:16.964Z,100574.47
2022-10-22T18:46:44.933Z,100580.47
2022-10-22T18:49:18.581Z,100571.78
2022-10-22T18:51:48.850Z,100570.94
2022-10-22T18:54:23.155Z,100577.84
2022-10-22T18:56:52.565Z,100583.09
2022-10-22T18:59:23.575Z,100587.38
2022-10-22T19:01:52.121Z,100583.66
2022-10-22T19:04:20.353Z,100588.72
2022-10-22T19:06:48.202Z,100585.38
2022-10-22T19:09:18.224Z,100579.41
2022-10-22T19:11:47.030Z,100575.91
2022-10-22T19:14:15.221Z,100567.19
2022-10-22T19:16:43.525Z,100564.56
2022-10-22T19:19:16.132Z,100564.50
2022-10-22T19:21:44.670Z,100570.50
2022-10-22T19:24:15.900Z,100566.16
2022-10-22T19:26:46.733Z,100569.63
2022-10-22T19:29:17.454Z,100565.25
2022-10-22T19:31:45.843Z,100567.88
2022-10-22T19:34:13.942Z,100572.16
2022-10-22T19:36:41.865Z,100569.56
2022-10-22T19:39:09.768Z,100573.03
2022-10-22T19:41:37.664Z,100578.19
2022-10-22T19:44:07.138Z,100577.31
2022-10-22T19:46:35.017Z,100580.81
2022-10-22T19:49:04.275Z,100578.06
2022-10-22T19:51:34.388Z,100590.03
2022-10-22T19:54:05.280Z,100582.91
2022-10-22T19:56:34.731Z,100583.72
2022-10-22T19:59:06.525Z,100578.56
2022-10-22T20:01:35.641Z,100590.78
2022-10-22T20:04:06.956Z,100581.31
2022-10-22T20:06:44.436Z,100581.31
2022-10-22T20:09:13.464Z,100572.56
2022-10-22T20:11:41.421Z,100575.19
2022-10-22T20:14:09.249Z,100576.03
2022-10-22T20:16:39.139Z,100574.28
2022-10-22T20:19:08.617Z,100566.53
2022-10-22T20:21:37.482Z,100564.84
2022-10-22T20:24:05.723Z,100562.19
2022-10-22T20:26:34.339Z,100563.94
2022-10-22T20:29:02.569Z,100562.19
2022-10-22T20:31:30.664Z,100567.44
2022-10-22T20:34:01.972Z,100568.91
2022-10-22T20:36:31.550Z,100569.81
2022-10-22T20:39:02.936Z,100567.28
2022-10-22T20:41:31.016Z,100570.94
2022-10-22T20:43:58.763Z,100567.69
2022-10-22T20:46:29.436Z,100562.56
2022-10-22T20:49:03.206Z,100567.88
2022-10-22T20:51:31.860Z,100561.06
2022-10-22T20:53:59.698Z,100570.47
2022-10-22T20:56:29.665Z,100566.16
2022-10-22T20:59:05.618Z,100574.91
2022-10-22T21:01:38.024Z,100578.47
2022-10-22T21:04:08.535Z,100576.88
2022-10-22T21:06:41.345Z,100584.69
2022-10-22T21:09:12.036Z,100587.16
2022-10-22T21:11:43.129Z,100587.28
2022-10-22T21:14:14.892Z,100585.56
2022-10-22T21:16:44.258Z,100575.09
2022-10-22T21:19:13.402Z,100582.97
2022-10-22T21:21:41.332Z,100572.53
2022-10-22T21:24:09.556Z,100569.06
2022-10-22T21:26:39.001Z,100568.97
2022-10-22T21:29:07.275Z,100570.72
2022-10-22T21:31:35.833Z,100575.91
2022-10-22T21:34:03.795Z,100582.78
2022-10-22T21:36:33.308Z,100583.53
2022-10-22T21:39:02.478Z,100579.16
2022-10-22T21:41:30.372Z,100586.09
2022-10-22T21:43:58.273Z,100584.41
2022-10-22T21:46:28.669Z,100592.25
2022-10-22T21:49:01.991Z,100599.31
2022-10-22T21:51:33.662Z,100597.63
2022-10-22T21:54:01.732Z,100595.09
2022-10-22T21:56:32.850Z,100589.03
2022-10-22T21:59:01.791Z,100585.47
2022-10-22T22:01:30.240Z,100583.69
2022-10-22T22:03:58.433Z,100586.38
2022-10-22T22:06:32.048Z,100580.31
2022-10-22T22:09:04.743Z,100583.72
2022-10-22T22:11:32.938Z,100587.22
2022-10-22T22:14:00.772Z,100583.81
2022-10-22T22:16:34.893Z,100585.59
2022-10-22T22:19:07.485Z,100585.72
2022-10-22T22:21:39.289Z,100581.38
2022-10-22T22:24:12.767Z,100584.88
2022-10-22T22:26:41.739Z,100585.00
2022-10-22T22:29:10.795Z,100586.72
2022-10-22T22:31:40.053Z,100589.38
2022-10-22T22:34:13.320Z,100592.75
2022-10-22T22:36:45.521Z,100591.88
2022-10-22T22:39:18.051Z,100587.47
2022-10-22T22:41:46.678Z,100589.13
2022-10-22T22:44:15.039Z,100579.56
2022-10-22T22:46:43.277Z,100585.75
2022-10-22T22:49:12.590Z,100578.72
2022-10-22T22:51:40.592Z,100569.09
2022-10-22T22:54:11.305Z,100563.81
2022-10-22T22:56:40.926Z,100572.53
2022-10-22T22:59:10.317Z,100568.19
2022-10-22T23:01:41.414Z,100554.25
2022-10-22T23:04:16.225Z,100554.22
2022-10-22T23:06:46.484Z,100554.41
2022-10-22T23:09:16.513Z,100557.94
2022-10-22T23:11:47.718Z,100560.69
2022-10-22T23:14:18.967Z,100552.06
2022-10-22T23:16:50.631Z,100553.91
2022-10-22T23:19:21.784Z,100553.91
2022-10-22T23:21:54.418Z,100563.53
2022-10-22T23:24:27.485Z,100553.09
2022-10-22T23:27:01.646Z,100546.19
2022-10-22T23:29:32.725Z,100547.91
2022-10-22T23:32:02.012Z,100552.19
2022-10-22T23:34:32.376Z,100546.88
2022-10-22T23:37:00.722Z,100540.78
2022-10-22T23:39:29.707Z,100539.03
2022-10-22T23:41:59.302Z,100530.31
2022-10-22T23:44:27.646Z,100531.06
2022-10-22T23:46:55.706Z,100539.84
2022-10-22T23:49:23.613Z,100546.03
2022-10-22T23:51:51.467Z,100542.59
2022-10-22T23:54:19.363Z,100538.22
2022-10-22T23:56:47.358Z,100536.44
2022-10-22T23:59:16.850Z,100524.97
